Entiat, Washington
Current Conditions -  °F | °C
As of 3:32 PM on Thursday 18 Dec 2014 (Local Time) from KEAT Reporting Station
Overcast Overcast  
Wind Chill: 39°   Ceiling: 900
Heat Index: 39°   Visibility: 7mi
Dew Point: 36°   Wind: 0mph
Humidity: 89%   Direction: NA
Pressure: 29.97"   Gusts: NA
Location:  47.68°N, 120.21°W
Report Text: KEAT 182332Z AUTO 00000KT 7SM OVC009 04/02 A2997 RMK AO2 RAB08E28 CIG 008V011 P0000 T00390022
Loading
Personal Weather Stations






























Interactive Weather Map New forecast layout! Learn more

10-Day Weather Forecast

Advertisements
Track Severe Weather on mobile